sensor_id;sensor_type;location;lat;lon;timestamp;P1;durP1;ratioP1;P2;durP2;ratioP2
2177;SDS011;1095;50.992;6.798;2023-11-19T00:00:16;4.90;;;2.42;;
2177;SDS011;1095;50.992;6.798;2023-11-19T00:02:43;3.63;;;2.45;;
2177;SDS011;1095;50.992;6.798;2023-11-19T00:05:12;3.97;;;2.47;;
2177;SDS011;1095;50.992;6.798;2023-11-19T00:07:39;2.70;;;2.35;;
2177;SDS011;1095;50.992;6.798;2023-11-19T00:10:07;5.97;;;3.00;;
2177;SDS011;1095;50.992;6.798;2023-11-19T00:12:36;2.97;;;2.25;;
2177;SDS011;1095;50.992;6.798;2023-11-19T00:15:03;4.15;;;2.25;;
2177;SDS011;1095;50.992;6.798;2023-11-19T00:17:30;3.75;;;2.40;;
2177;SDS011;1095;50.992;6.798;2023-11-19T00:19:59;2.67;;;2.00;;
2177;SDS011;1095;50.992;6.798;2023-11-19T00:22:27;3.83;;;2.38;;
2177;SDS011;1095;50.992;6.798;2023-11-19T00:24:54;2.88;;;2.00;;
2177;SDS011;1095;50.992;6.798;2023-11-19T00:27:20;3.60;;;1.88;;
2177;SDS011;1095;50.992;6.798;2023-11-19T00:29:47;2.22;;;1.80;;
2177;SDS011;1095;50.992;6.798;2023-11-19T00:32:14;3.30;;;1.42;;
2177;SDS011;1095;50.992;6.798;2023-11-19T00:34:43;3.17;;;1.40;;
2177;SDS011;1095;50.992;6.798;2023-11-19T00:37:10;3.38;;;1.80;;
2177;SDS011;1095;50.992;6.798;2023-11-19T00:39:38;1.90;;;1.48;;
2177;SDS011;1095;50.992;6.798;2023-11-19T00:42:07;1.45;;;1.35;;
2177;SDS011;1095;50.992;6.798;2023-11-19T00:44:35;2.30;;;1.52;;
2177;SDS011;1095;50.992;6.798;2023-11-19T00:47:01;1.63;;;1.45;;
2177;SDS011;1095;50.992;6.798;2023-11-19T00:49:30;1.70;;;1.25;;
2177;SDS011;1095;50.992;6.798;2023-11-19T00:51:57;1.40;;;1.30;;
2177;SDS011;1095;50.992;6.798;2023-11-19T00:54:24;1.38;;;1.27;;
2177;SDS011;1095;50.992;6.798;2023-11-19T00:56:53;2.90;;;1.63;;
2177;SDS011;1095;50.992;6.798;2023-11-19T00:59:19;1.40;;;1.30;;
2177;SDS011;1095;50.992;6.798;2023-11-19T01:01:46;2.03;;;1.83;;
2177;SDS011;1095;50.992;6.798;2023-11-19T01:04:13;2.67;;;1.10;;
2177;SDS011;1095;50.992;6.798;2023-11-19T01:06:39;1.38;;;1.27;;
2177;SDS011;1095;50.992;6.798;2023-11-19T01:09:07;2.42;;;1.27;;
2177;SDS011;1095;50.992;6.798;2023-11-19T01:11:34;3.17;;;1.17;;
2177;SDS011;1095;50.992;6.798;2023-11-19T01:14:03;2.03;;;1.48;;
2177;SDS011;1095;50.992;6.798;2023-11-19T01:16:29;1.83;;;1.52;;
2177;SDS011;1095;50.992;6.798;2023-11-19T01:18:56;3.13;;;1.95;;
2177;SDS011;1095;50.992;6.798;2023-11-19T01:21:23;2.70;;;1.90;;
2177;SDS011;1095;50.992;6.798;2023-11-19T01:23:50;2.25;;;1.65;;
2177;SDS011;1095;50.992;6.798;2023-11-19T01:26:19;1.52;;;1.42;;
2177;SDS011;1095;50.992;6.798;2023-11-19T01:28:46;3.15;;;1.88;;
2177;SDS011;1095;50.992;6.798;2023-11-19T01:31:15;2.42;;;1.88;;
2177;SDS011;1095;50.992;6.798;2023-11-19T01:33:42;2.28;;;1.73;;
2177;SDS011;1095;50.992;6.798;2023-11-19T01:36:09;3.63;;;2.33;;
2177;SDS011;1095;50.992;6.798;2023-11-19T01:38:39;2.97;;;2.42;;
2177;SDS011;1095;50.992;6.798;2023-11-19T01:41:06;4.80;;;2.55;;
2177;SDS011;1095;50.992;6.798;2023-11-19T01:43:35;4.32;;;2.75;;
2177;SDS011;1095;50.992;6.798;2023-11-19T01:46:04;7.00;;;2.80;;
2177;SDS011;1095;50.992;6.798;2023-11-19T01:51:12;5.10;;;3.20;;
2177;SDS011;1095;50.992;6.798;2023-11-19T01:53:41;9.80;;;3.58;;
2177;SDS011;1095;50.992;6.798;2023-11-19T01:56:13;5.82;;;3.03;;
2177;SDS011;1095;50.992;6.798;2023-11-19T01:58:41;6.57;;;3.95;;
2177;SDS011;1095;50.992;6.798;2023-11-19T02:01:10;5.82;;;3.35;;
2177;SDS011;1095;50.992;6.798;2023-11-19T02:03:40;8.07;;;4.00;;
2177;SDS011;1095;50.992;6.798;2023-11-19T02:06:08;6.45;;;3.55;;
2177;SDS011;1095;50.992;6.798;2023-11-19T02:08:35;9.00;;;3.70;;
2177;SDS011;1095;50.992;6.798;2023-11-19T02:11:03;7.35;;;3.47;;
2177;SDS011;1095;50.992;6.798;2023-11-19T02:13:32;5.63;;;3.40;;
2177;SDS011;1095;50.992;6.798;2023-11-19T02:16:01;9.80;;;3.53;;
2177;SDS011;1095;50.992;6.798;2023-11-19T02:18:28;8.43;;;3.88;;
2177;SDS011;1095;50.992;6.798;2023-11-19T02:20:57;10.68;;;3.92;;
2177;SDS011;1095;50.992;6.798;2023-11-19T02:23:25;10.10;;;3.90;;
2177;SDS011;1095;50.992;6.798;2023-11-19T02:26:02;10.68;;;3.40;;
2177;SDS011;1095;50.992;6.798;2023-11-19T02:28:41;13.18;;;3.95;;
2177;SDS011;1095;50.992;6.798;2023-11-19T02:31:08;9.43;;;3.80;;
2177;SDS011;1095;50.992;6.798;2023-11-19T02:33:35;11.82;;;3.80;;
2177;SDS011;1095;50.992;6.798;2023-11-19T02:36:02;15.93;;;3.92;;
2177;SDS011;1095;50.992;6.798;2023-11-19T02:38:30;10.35;;;4.30;;
2177;SDS011;1095;50.992;6.798;2023-11-19T02:40:56;10.95;;;4.63;;
2177;SDS011;1095;50.992;6.798;2023-11-19T02:43:23;13.30;;;4.68;;
2177;SDS011;1095;50.992;6.798;2023-11-19T02:45:54;10.02;;;4.30;;
2177;SDS011;1095;50.992;6.798;2023-11-19T02:48:21;11.23;;;4.03;;
2177;SDS011;1095;50.992;6.798;2023-11-19T02:50:48;14.63;;;4.55;;
2177;SDS011;1095;50.992;6.798;2023-11-19T02:53:14;11.57;;;4.00;;
2177;SDS011;1095;50.992;6.798;2023-11-19T02:55:42;16.92;;;4.40;;
2177;SDS011;1095;50.992;6.798;2023-11-19T02:58:13;12.30;;;4.43;;
2177;SDS011;1095;50.992;6.798;2023-11-19T03:00:48;10.48;;;4.13;;
2177;SDS011;1095;50.992;6.798;2023-11-19T03:03:23;11.10;;;4.00;;
2177;SDS011;1095;50.992;6.798;2023-11-19T03:05:55;10.38;;;4.07;;
2177;SDS011;1095;50.992;6.798;2023-11-19T03:08:22;12.82;;;4.53;;
2177;SDS011;1095;50.992;6.798;2023-11-19T03:10:49;13.48;;;4.82;;
2177;SDS011;1095;50.992;6.798;2023-11-19T03:13:15;12.68;;;3.83;;
2177;SDS011;1095;50.992;6.798;2023-11-19T03:15:43;13.50;;;4.13;;
2177;SDS011;1095;50.992;6.798;2023-11-19T03:18:09;13.35;;;3.92;;
2177;SDS011;1095;50.992;6.798;2023-11-19T03:20:37;17.73;;;5.10;;
2177;SDS011;1095;50.992;6.798;2023-11-19T03:23:04;15.00;;;4.20;;
2177;SDS011;1095;50.992;6.798;2023-11-19T03:25:33;12.23;;;4.00;;
2177;SDS011;1095;50.992;6.798;2023-11-19T03:28:01;16.67;;;3.97;;
2177;SDS011;1095;50.992;6.798;2023-11-19T03:30:29;13.73;;;4.30;;
2177;SDS011;1095;50.992;6.798;2023-11-19T03:32:56;12.05;;;4.38;;
2177;SDS011;1095;50.992;6.798;2023-11-19T03:35:23;14.25;;;4.07;;
2177;SDS011;1095;50.992;6.798;2023-11-19T03:38:02;17.35;;;5.57;;
2177;SDS011;1095;50.992;6.798;2023-11-19T03:41:20;15.25;;;3.97;;
2177;SDS011;1095;50.992;6.798;2023-11-19T03:47:12;13.93;;;4.55;;
2177;SDS011;1095;50.992;6.798;2023-11-19T03:49:51;15.82;;;4.75;;
2177;SDS011;1095;50.992;6.798;2023-11-19T03:52:21;18.00;;;4.72;;
2177;SDS011;1095;50.992;6.798;2023-11-19T03:55:06;13.18;;;4.35;;
2177;SDS011;1095;50.992;6.798;2023-11-19T03:57:38;12.65;;;4.38;;
2177;SDS011;1095;50.992;6.798;2023-11-19T04:00:27;11.88;;;4.28;;
2177;SDS011;1095;50.992;6.798;2023-11-19T04:03:32;14.82;;;4.30;;
2177;SDS011;1095;50.992;6.798;2023-11-19T04:08:43;13.32;;;4.45;;
2177;SDS011;1095;50.992;6.798;2023-11-19T04:11:35;17.58;;;4.22;;
2177;SDS011;1095;50.992;6.798;2023-11-19T04:14:23;13.77;;;4.28;;
2177;SDS011;1095;50.992;6.798;2023-11-19T04:16:52;11.60;;;4.07;;
2177;SDS011;1095;50.992;6.798;2023-11-19T04:29:15;13.13;;;4.47;;
2177;SDS011;1095;50.992;6.798;2023-11-19T04:32:00;17.38;;;5.18;;
2177;SDS011;1095;50.992;6.798;2023-11-19T04:34:28;20.58;;;5.13;;
2177;SDS011;1095;50.992;6.798;2023-11-19T04:37:04;16.83;;;4.10;;
2177;SDS011;1095;50.992;6.798;2023-11-19T04:39:57;16.25;;;5.60;;
2177;SDS011;1095;50.992;6.798;2023-11-19T04:42:47;16.42;;;4.32;;
2177;SDS011;1095;50.992;6.798;2023-11-19T04:45:43;20.02;;;4.90;;
2177;SDS011;1095;50.992;6.798;2023-11-19T04:51:18;16.50;;;4.53;;
2177;SDS011;1095;50.992;6.798;2023-11-19T04:53:51;20.70;;;4.57;;
2177;SDS011;1095;50.992;6.798;2023-11-19T04:57:02;23.58;;;4.97;;
2177;SDS011;1095;50.992;6.798;2023-11-19T04:59:51;19.67;;;5.18;;
2177;SDS011;1095;50.992;6.798;2023-11-19T05:02:44;17.58;;;5.57;;
2177;SDS011;1095;50.992;6.798;2023-11-19T05:05:17;17.33;;;5.43;;
2177;SDS011;1095;50.992;6.798;2023-11-19T05:07:49;17.45;;;5.13;;
2177;SDS011;1095;50.992;6.798;2023-11-19T05:10:16;16.45;;;4.80;;
2177;SDS011;1095;50.992;6.798;2023-11-19T05:12:59;23.15;;;5.10;;
2177;SDS011;1095;50.992;6.798;2023-11-19T05:15:48;21.35;;;4.85;;
2177;SDS011;1095;50.992;6.798;2023-11-19T05:18:28;18.52;;;4.72;;
2177;SDS011;1095;50.992;6.798;2023-11-19T05:21:05;15.55;;;4.75;;
2177;SDS011;1095;50.992;6.798;2023-11-19T05:24:19;14.75;;;4.28;;
2177;SDS011;1095;50.992;6.798;2023-11-19T05:27:43;19.90;;;4.50;;
2177;SDS011;1095;50.992;6.798;2023-11-19T05:33:54;26.08;;;5.97;;
2177;SDS011;1095;50.992;6.798;2023-11-19T05:36:55;17.83;;;4.45;;
2177;SDS011;1095;50.992;6.798;2023-11-19T05:39:30;18.08;;;4.75;;
2177;SDS011;1095;50.992;6.798;2023-11-19T05:41:57;19.67;;;5.25;;
2177;SDS011;1095;50.992;6.798;2023-11-19T05:44:54;18.00;;;5.38;;
2177;SDS011;1095;50.992;6.798;2023-11-19T05:47:25;24.88;;;4.95;;
2177;SDS011;1095;50.992;6.798;2023-11-19T05:49:57;22.48;;;5.35;;
2177;SDS011;1095;50.992;6.798;2023-11-19T05:52:34;17.33;;;4.60;;
2177;SDS011;1095;50.992;6.798;2023-11-19T05:55:26;23.23;;;5.90;;
2177;SDS011;1095;50.992;6.798;2023-11-19T06:01:25;20.30;;;5.15;;
2177;SDS011;1095;50.992;6.798;2023-11-19T06:04:20;26.13;;;6.65;;
2177;SDS011;1095;50.992;6.798;2023-11-19T06:07:14;22.85;;;5.68;;
2177;SDS011;1095;50.992;6.798;2023-11-19T06:09:42;23.38;;;5.53;;
2177;SDS011;1095;50.992;6.798;2023-11-19T06:12:17;22.58;;;5.18;;
2177;SDS011;1095;50.992;6.798;2023-11-19T06:14:46;24.60;;;5.32;;
2177;SDS011;1095;50.992;6.798;2023-11-19T06:17:13;26.25;;;5.43;;
2177;SDS011;1095;50.992;6.798;2023-11-19T06:19:46;22.20;;;4.97;;
2177;SDS011;1095;50.992;6.798;2023-11-19T06:22:14;23.63;;;5.75;;
2177;SDS011;1095;50.992;6.798;2023-11-19T06:24:41;19.65;;;5.10;;
2177;SDS011;1095;50.992;6.798;2023-11-19T06:27:11;17.42;;;4.60;;
2177;SDS011;1095;50.992;6.798;2023-11-19T06:29:44;24.80;;;5.25;;
2177;SDS011;1095;50.992;6.798;2023-11-19T06:32:52;22.20;;;5.03;;
2177;SDS011;1095;50.992;6.798;2023-11-19T06:35:28;28.33;;;5.97;;
2177;SDS011;1095;50.992;6.798;2023-11-19T06:38:05;20.10;;;5.00;;
2177;SDS011;1095;50.992;6.798;2023-11-19T06:40:34;16.95;;;5.38;;
2177;SDS011;1095;50.992;6.798;2023-11-19T06:43:10;22.02;;;5.30;;
2177;SDS011;1095;50.992;6.798;2023-11-19T06:45:37;21.05;;;5.30;;
2177;SDS011;1095;50.992;6.798;2023-11-19T06:48:04;22.17;;;5.53;;
2177;SDS011;1095;50.992;6.798;2023-11-19T06:50:32;22.25;;;4.82;;
2177;SDS011;1095;50.992;6.798;2023-11-19T06:53:02;24.00;;;5.97;;
2177;SDS011;1095;50.992;6.798;2023-11-19T06:55:42;16.65;;;4.55;;
2177;SDS011;1095;50.992;6.798;2023-11-19T06:58:11;22.35;;;5.75;;
2177;SDS011;1095;50.992;6.798;2023-11-19T07:00:40;20.60;;;4.95;;
2177;SDS011;1095;50.992;6.798;2023-11-19T07:06:26;22.92;;;5.30;;
2177;SDS011;1095;50.992;6.798;2023-11-19T07:08:52;22.13;;;5.25;;
2177;SDS011;1095;50.992;6.798;2023-11-19T07:11:43;25.70;;;6.00;;
2177;SDS011;1095;50.992;6.798;2023-11-19T07:14:21;24.35;;;5.90;;
2177;SDS011;1095;50.992;6.798;2023-11-19T07:16:59;21.70;;;5.20;;
2177;SDS011;1095;50.992;6.798;2023-11-19T07:21:31;24.38;;;6.13;;
2177;SDS011;1095;50.992;6.798;2023-11-19T07:23:34;16.70;;;5.35;;
2177;SDS011;1095;50.992;6.798;2023-11-19T07:29:59;27.52;;;5.57;;
2177;SDS011;1095;50.992;6.798;2023-11-19T07:33:13;15.63;;;4.65;;
2177;SDS011;1095;50.992;6.798;2023-11-19T07:35:51;17.50;;;5.18;;
2177;SDS011;1095;50.992;6.798;2023-11-19T07:38:30;19.77;;;4.75;;
2177;SDS011;1095;50.992;6.798;2023-11-19T07:41:06;21.50;;;5.28;;
2177;SDS011;1095;50.992;6.798;2023-11-19T07:43:38;23.35;;;5.20;;
2177;SDS011;1095;50.992;6.798;2023-11-19T07:46:13;25.23;;;6.20;;
2177;SDS011;1095;50.992;6.798;2023-11-19T07:48:46;29.80;;;5.93;;
2177;SDS011;1095;50.992;6.798;2023-11-19T07:51:19;25.85;;;5.45;;
2177;SDS011;1095;50.992;6.798;2023-11-19T07:53:46;26.83;;;6.72;;
2177;SDS011;1095;50.992;6.798;2023-11-19T07:56:14;23.33;;;4.97;;
2177;SDS011;1095;50.992;6.798;2023-11-19T07:59:00;24.90;;;6.13;;
2177;SDS011;1095;50.992;6.798;2023-11-19T08:01:48;24.58;;;7.13;;
2177;SDS011;1095;50.992;6.798;2023-11-19T08:04:15;29.88;;;6.93;;
2177;SDS011;1095;50.992;6.798;2023-11-19T08:06:44;32.47;;;8.20;;
2177;SDS011;1095;50.992;6.798;2023-11-19T08:09:14;29.17;;;6.82;;
2177;SDS011;1095;50.992;6.798;2023-11-19T08:11:41;27.05;;;7.60;;
2177;SDS011;1095;50.992;6.798;2023-11-19T08:14:11;23.33;;;6.28;;
2177;SDS011;1095;50.992;6.798;2023-11-19T08:16:38;31.23;;;6.38;;
2177;SDS011;1095;50.992;6.798;2023-11-19T08:19:12;22.67;;;5.45;;
2177;SDS011;1095;50.992;6.798;2023-11-19T08:21:43;24.33;;;5.57;;
2177;SDS011;1095;50.992;6.798;2023-11-19T08:24:12;20.67;;;5.03;;
2177;SDS011;1095;50.992;6.798;2023-11-19T08:26:41;15.43;;;4.90;;
2177;SDS011;1095;50.992;6.798;2023-11-19T08:29:10;24.05;;;5.65;;
2177;SDS011;1095;50.992;6.798;2023-11-19T08:31:38;25.13;;;6.32;;
2177;SDS011;1095;50.992;6.798;2023-11-19T08:34:09;24.90;;;5.93;;
2177;SDS011;1095;50.992;6.798;2023-11-19T08:36:43;22.77;;;6.63;;
2177;SDS011;1095;50.992;6.798;2023-11-19T08:39:15;30.52;;;6.78;;
2177;SDS011;1095;50.992;6.798;2023-11-19T08:41:46;25.55;;;6.47;;
2177;SDS011;1095;50.992;6.798;2023-11-19T08:44:12;23.13;;;5.18;;
2177;SDS011;1095;50.992;6.798;2023-11-19T08:46:39;23.25;;;5.10;;
2177;SDS011;1095;50.992;6.798;2023-11-19T08:49:14;26.13;;;5.75;;
2177;SDS011;1095;50.992;6.798;2023-11-19T08:51:41;27.08;;;5.38;;
2177;SDS011;1095;50.992;6.798;2023-11-19T08:54:08;27.98;;;6.18;;
2177;SDS011;1095;50.992;6.798;2023-11-19T08:56:34;23.73;;;5.50;;
2177;SDS011;1095;50.992;6.798;2023-11-19T08:59:01;25.05;;;6.47;;
2177;SDS011;1095;50.992;6.798;2023-11-19T09:01:29;27.40;;;5.45;;
2177;SDS011;1095;50.992;6.798;2023-11-19T09:03:57;23.75;;;5.28;;
2177;SDS011;1095;50.992;6.798;2023-11-19T09:06:26;23.88;;;6.43;;
2177;SDS011;1095;50.992;6.798;2023-11-19T09:08:55;24.35;;;5.90;;
2177;SDS011;1095;50.992;6.798;2023-11-19T09:11:28;22.45;;;5.00;;
2177;SDS011;1095;50.992;6.798;2023-11-19T09:14:04;25.58;;;5.22;;
2177;SDS011;1095;50.992;6.798;2023-11-19T09:16:34;22.48;;;5.15;;
2177;SDS011;1095;50.992;6.798;2023-11-19T09:19:05;27.85;;;5.68;;
2177;SDS011;1095;50.992;6.798;2023-11-19T09:21:36;28.23;;;5.90;;
2177;SDS011;1095;50.992;6.798;2023-11-19T09:24:09;24.40;;;6.60;;
2177;SDS011;1095;50.992;6.798;2023-11-19T09:26:36;26.83;;;6.03;;
2177;SDS011;1095;50.992;6.798;2023-11-19T09:29:06;29.95;;;5.80;;
2177;SDS011;1095;50.992;6.798;2023-11-19T09:31:39;30.02;;;6.38;;
2177;SDS011;1095;50.992;6.798;2023-11-19T09:58:05;21.92;;;5.78;;
2177;SDS011;1095;50.992;6.798;2023-11-19T10:00:34;23.23;;;5.35;;
2177;SDS011;1095;50.992;6.798;2023-11-19T10:03:01;28.55;;;5.97;;
2177;SDS011;1095;50.992;6.798;2023-11-19T10:05:30;17.67;;;5.30;;
2177;SDS011;1095;50.992;6.798;2023-11-19T10:07:57;17.15;;;4.88;;
2177;SDS011;1095;50.992;6.798;2023-11-19T10:10:24;18.77;;;5.35;;
2177;SDS011;1095;50.992;6.798;2023-11-19T10:12:52;32.00;;;8.68;;
2177;SDS011;1095;50.992;6.798;2023-11-19T10:15:20;19.20;;;4.88;;
2177;SDS011;1095;50.992;6.798;2023-11-19T10:17:50;25.17;;;5.80;;
2177;SDS011;1095;50.992;6.798;2023-11-19T10:20:17;23.73;;;6.07;;
2177;SDS011;1095;50.992;6.798;2023-11-19T10:22:44;21.02;;;5.65;;
2177;SDS011;1095;50.992;6.798;2023-11-19T10:25:21;31.50;;;6.43;;
2177;SDS011;1095;50.992;6.798;2023-11-19T10:27:48;24.55;;;5.45;;
2177;SDS011;1095;50.992;6.798;2023-11-19T10:30:19;26.13;;;6.53;;
2177;SDS011;1095;50.992;6.798;2023-11-19T10:32:58;23.33;;;5.05;;
2177;SDS011;1095;50.992;6.798;2023-11-19T10:35:29;27.60;;;5.57;;
2177;SDS011;1095;50.992;6.798;2023-11-19T10:37:58;20.02;;;5.45;;
2177;SDS011;1095;50.992;6.798;2023-11-19T10:40:28;18.92;;;5.40;;
2177;SDS011;1095;50.992;6.798;2023-11-19T10:43:04;21.02;;;4.85;;
2177;SDS011;1095;50.992;6.798;2023-11-19T10:45:32;23.08;;;6.15;;
2177;SDS011;1095;50.992;6.798;2023-11-19T10:48:01;26.25;;;8.10;;
2177;SDS011;1095;50.992;6.798;2023-11-19T10:50:29;23.67;;;6.88;;
2177;SDS011;1095;50.992;6.798;2023-11-19T10:52:56;18.48;;;5.18;;
2177;SDS011;1095;50.992;6.798;2023-11-19T10:55:26;18.25;;;5.38;;
2177;SDS011;1095;50.992;6.798;2023-11-19T10:57:55;19.40;;;5.40;;
2177;SDS011;1095;50.992;6.798;2023-11-19T11:00:25;23.45;;;5.85;;
2177;SDS011;1095;50.992;6.798;2023-11-19T11:02:55;26.65;;;6.85;;
2177;SDS011;1095;50.992;6.798;2023-11-19T11:05:27;22.35;;;5.70;;
2177;SDS011;1095;50.992;6.798;2023-11-19T11:07:55;28.95;;;4.97;;
2177;SDS011;1095;50.992;6.798;2023-11-19T11:10:22;22.98;;;5.45;;
2177;SDS011;1095;50.992;6.798;2023-11-19T11:12:52;23.52;;;5.60;;
2177;SDS011;1095;50.992;6.798;2023-11-19T11:15:25;25.67;;;5.25;;
2177;SDS011;1095;50.992;6.798;2023-11-19T11:17:54;23.52;;;5.43;;
2177;SDS011;1095;50.992;6.798;2023-11-19T11:20:24;18.52;;;5.15;;
2177;SDS011;1095;50.992;6.798;2023-11-19T11:22:55;22.17;;;5.25;;
2177;SDS011;1095;50.992;6.798;2023-11-19T11:25:34;24.52;;;5.30;;
2177;SDS011;1095;50.992;6.798;2023-11-19T11:28:11;20.48;;;5.03;;
2177;SDS011;1095;50.992;6.798;2023-11-19T11:30:53;24.63;;;5.22;;
2177;SDS011;1095;50.992;6.798;2023-11-19T11:33:41;23.45;;;5.15;;
2177;SDS011;1095;50.992;6.798;2023-11-19T11:36:24;17.83;;;4.97;;
2177;SDS011;1095;50.992;6.798;2023-11-19T11:38:53;19.17;;;4.70;;
2177;SDS011;1095;50.992;6.798;2023-11-19T11:41:25;15.75;;;4.13;;
2177;SDS011;1095;50.992;6.798;2023-11-19T11:43:53;18.30;;;4.82;;
2177;SDS011;1095;50.992;6.798;2023-11-19T11:49:27;19.02;;;4.60;;
2177;SDS011;1095;50.992;6.798;2023-11-19T11:52:02;19.58;;;4.82;;
2177;SDS011;1095;50.992;6.798;2023-11-19T11:54:31;22.33;;;6.78;;
2177;SDS011;1095;50.992;6.798;2023-11-19T11:57:01;19.08;;;4.55;;
2177;SDS011;1095;50.992;6.798;2023-11-19T11:59:36;18.65;;;5.05;;
2177;SDS011;1095;50.992;6.798;2023-11-19T12:02:09;18.70;;;4.75;;
2177;SDS011;1095;50.992;6.798;2023-11-19T12:04:36;16.27;;;4.70;;
2177;SDS011;1095;50.992;6.798;2023-11-19T12:07:06;19.65;;;4.38;;
2177;SDS011;1095;50.992;6.798;2023-11-19T12:09:38;12.20;;;4.72;;
2177;SDS011;1095;50.992;6.798;2023-11-19T12:12:17;16.85;;;4.60;;
2177;SDS011;1095;50.992;6.798;2023-11-19T12:15:01;17.23;;;4.88;;
2177;SDS011;1095;50.992;6.798;2023-11-19T12:17:48;17.20;;;5.05;;
2177;SDS011;1095;50.992;6.798;2023-11-19T12:20:15;15.43;;;4.85;;
2177;SDS011;1095;50.992;6.798;2023-11-19T12:22:43;19.80;;;4.78;;
2177;SDS011;1095;50.992;6.798;2023-11-19T12:25:13;19.38;;;4.95;;
2177;SDS011;1095;50.992;6.798;2023-11-19T12:27:41;19.75;;;5.00;;
2177;SDS011;1095;50.992;6.798;2023-11-19T12:30:09;19.45;;;5.15;;
2177;SDS011;1095;50.992;6.798;2023-11-19T12:32:40;17.90;;;4.55;;
2177;SDS011;1095;50.992;6.798;2023-11-19T12:35:07;26.70;;;6.57;;
2177;SDS011;1095;50.992;6.798;2023-11-19T12:37:39;23.10;;;5.90;;
2177;SDS011;1095;50.992;6.798;2023-11-19T12:40:15;20.70;;;4.35;;
2177;SDS011;1095;50.992;6.798;2023-11-19T12:45:10;21.30;;;5.13;;
2177;SDS011;1095;50.992;6.798;2023-11-19T12:47:38;15.52;;;4.70;;
2177;SDS011;1095;50.992;6.798;2023-11-19T12:50:05;19.45;;;5.47;;
2177;SDS011;1095;50.992;6.798;2023-11-19T12:52:33;15.38;;;5.72;;
2177;SDS011;1095;50.992;6.798;2023-11-19T12:55:00;18.20;;;5.15;;
2177;SDS011;1095;50.992;6.798;2023-11-19T12:57:38;18.00;;;4.57;;
2177;SDS011;1095;50.992;6.798;2023-11-19T13:00:06;18.48;;;4.53;;
2177;SDS011;1095;50.992;6.798;2023-11-19T13:02:44;17.08;;;4.57;;
2177;SDS011;1095;50.992;6.798;2023-11-19T13:05:25;20.08;;;4.88;;
2177;SDS011;1095;50.992;6.798;2023-11-19T13:08:02;17.95;;;4.72;;
2177;SDS011;1095;50.992;6.798;2023-11-19T13:10:30;17.90;;;4.63;;
2177;SDS011;1095;50.992;6.798;2023-11-19T13:13:06;17.48;;;4.80;;
2177;SDS011;1095;50.992;6.798;2023-11-19T13:15:34;18.85;;;6.63;;
2177;SDS011;1095;50.992;6.798;2023-11-19T13:18:01;14.80;;;4.97;;
2177;SDS011;1095;50.992;6.798;2023-11-19T13:20:29;17.85;;;5.47;;
2177;SDS011;1095;50.992;6.798;2023-11-19T13:22:57;18.80;;;4.90;;
2177;SDS011;1095;50.992;6.798;2023-11-19T13:25:24;15.18;;;4.75;;
2177;SDS011;1095;50.992;6.798;2023-11-19T13:27:51;18.55;;;5.00;;
2177;SDS011;1095;50.992;6.798;2023-11-19T13:30:20;18.00;;;6.43;;
2177;SDS011;1095;50.992;6.798;2023-11-19T13:32:47;23.65;;;5.50;;
2177;SDS011;1095;50.992;6.798;2023-11-19T13:35:14;16.20;;;5.32;;
2177;SDS011;1095;50.992;6.798;2023-11-19T13:37:42;19.20;;;5.05;;
2177;SDS011;1095;50.992;6.798;2023-11-19T13:40:09;20.17;;;4.97;;
2177;SDS011;1095;50.992;6.798;2023-11-19T13:42:39;24.30;;;5.35;;
2177;SDS011;1095;50.992;6.798;2023-11-19T13:45:06;22.17;;;5.05;;
2177;SDS011;1095;50.992;6.798;2023-11-19T13:47:38;19.67;;;5.10;;
2177;SDS011;1095;50.992;6.798;2023-11-19T13:50:07;18.05;;;5.38;;
2177;SDS011;1095;50.992;6.798;2023-11-19T13:52:35;25.67;;;5.65;;
2177;SDS011;1095;50.992;6.798;2023-11-19T13:55:04;25.60;;;5.68;;
2177;SDS011;1095;50.992;6.798;2023-11-19T13:57:31;27.23;;;5.78;;
2177;SDS011;1095;50.992;6.798;2023-11-19T13:59:59;21.05;;;5.18;;
2177;SDS011;1095;50.992;6.798;2023-11-19T14:02:26;20.88;;;4.97;;
2177;SDS011;1095;50.992;6.798;2023-11-19T14:04:54;24.20;;;5.30;;
2177;SDS011;1095;50.992;6.798;2023-11-19T14:07:20;22.08;;;6.40;;
2177;SDS011;1095;50.992;6.798;2023-11-19T14:09:48;21.30;;;5.45;;
2177;SDS011;1095;50.992;6.798;2023-11-19T14:12:15;21.27;;;5.18;;
2177;SDS011;1095;50.992;6.798;2023-11-19T14:14:42;19.25;;;5.55;;
2177;SDS011;1095;50.992;6.798;2023-11-19T14:17:09;19.42;;;5.93;;
2177;SDS011;1095;50.992;6.798;2023-11-19T14:19:36;17.08;;;4.72;;
2177;SDS011;1095;50.992;6.798;2023-11-19T14:22:06;18.83;;;4.72;;
2177;SDS011;1095;50.992;6.798;2023-11-19T14:24:33;18.83;;;5.20;;
2177;SDS011;1095;50.992;6.798;2023-11-19T14:27:00;19.33;;;4.72;;
2177;SDS011;1095;50.992;6.798;2023-11-19T14:29:27;23.55;;;4.93;;
2177;SDS011;1095;50.992;6.798;2023-11-19T14:31:55;14.55;;;4.00;;
2177;SDS011;1095;50.992;6.798;2023-11-19T14:34:23;14.40;;;4.45;;
2177;SDS011;1095;50.992;6.798;2023-11-19T14:36:51;17.02;;;4.68;;
2177;SDS011;1095;50.992;6.798;2023-11-19T14:39:20;16.67;;;6.85;;
2177;SDS011;1095;50.992;6.798;2023-11-19T14:41:46;16.25;;;4.55;;
2177;SDS011;1095;50.992;6.798;2023-11-19T14:44:16;20.13;;;5.15;;
2177;SDS011;1095;50.992;6.798;2023-11-19T14:46:44;17.35;;;4.57;;
2177;SDS011;1095;50.992;6.798;2023-11-19T14:49:12;18.90;;;6.68;;
2177;SDS011;1095;50.992;6.798;2023-11-19T14:51:39;19.25;;;4.57;;
2177;SDS011;1095;50.992;6.798;2023-11-19T14:54:06;19.33;;;4.97;;
2177;SDS011;1095;50.992;6.798;2023-11-19T14:56:34;19.75;;;4.68;;
2177;SDS011;1095;50.992;6.798;2023-11-19T14:59:00;20.73;;;5.22;;
2177;SDS011;1095;50.992;6.798;2023-11-19T15:01:26;21.60;;;4.47;;
2177;SDS011;1095;50.992;6.798;2023-11-19T15:03:56;15.90;;;5.50;;
2177;SDS011;1095;50.992;6.798;2023-11-19T15:06:23;15.10;;;4.55;;
2177;SDS011;1095;50.992;6.798;2023-11-19T15:08:51;23.17;;;5.75;;
2177;SDS011;1095;50.992;6.798;2023-11-19T15:11:18;21.17;;;5.30;;
2177;SDS011;1095;50.992;6.798;2023-11-19T15:13:46;17.65;;;4.43;;
2177;SDS011;1095;50.992;6.798;2023-11-19T15:16:12;20.80;;;5.05;;
2177;SDS011;1095;50.992;6.798;2023-11-19T15:18:39;17.02;;;4.68;;
2177;SDS011;1095;50.992;6.798;2023-11-19T15:21:06;16.38;;;4.72;;
2177;SDS011;1095;50.992;6.798;2023-11-19T15:23:33;19.45;;;5.15;;
2177;SDS011;1095;50.992;6.798;2023-11-19T15:26:00;19.45;;;4.65;;
2177;SDS011;1095;50.992;6.798;2023-11-19T15:28:26;19.40;;;4.60;;
2177;SDS011;1095;50.992;6.798;2023-11-19T15:30:54;14.73;;;4.63;;
2177;SDS011;1095;50.992;6.798;2023-11-19T15:33:21;24.85;;;4.72;;
2177;SDS011;1095;50.992;6.798;2023-11-19T15:35:47;16.95;;;4.75;;
2177;SDS011;1095;50.992;6.798;2023-11-19T15:38:14;22.95;;;5.00;;
2177;SDS011;1095;50.992;6.798;2023-11-19T15:40:40;19.60;;;5.05;;
2177;SDS011;1095;50.992;6.798;2023-11-19T15:43:08;17.52;;;5.28;;
2177;SDS011;1095;50.992;6.798;2023-11-19T15:45:35;18.13;;;5.10;;
2177;SDS011;1095;50.992;6.798;2023-11-19T15:48:05;18.38;;;5.25;;
2177;SDS011;1095;50.992;6.798;2023-11-19T15:50:31;15.57;;;4.90;;
2177;SDS011;1095;50.992;6.798;2023-11-19T15:52:58;21.38;;;4.80;;
2177;SDS011;1095;50.992;6.798;2023-11-19T15:55:26;18.95;;;5.20;;
2177;SDS011;1095;50.992;6.798;2023-11-19T15:57:53;18.33;;;4.97;;
2177;SDS011;1095;50.992;6.798;2023-11-19T16:00:20;17.83;;;4.70;;
2177;SDS011;1095;50.992;6.798;2023-11-19T16:02:46;28.13;;;5.40;;
2177;SDS011;1095;50.992;6.798;2023-11-19T16:05:14;18.20;;;5.43;;
2177;SDS011;1095;50.992;6.798;2023-11-19T16:07:41;18.45;;;5.00;;
2177;SDS011;1095;50.992;6.798;2023-11-19T16:10:08;27.33;;;6.18;;
2177;SDS011;1095;50.992;6.798;2023-11-19T16:12:40;18.37;;;5.93;;
2177;SDS011;1095;50.992;6.798;2023-11-19T16:15:09;21.83;;;5.22;;
2177;SDS011;1095;50.992;6.798;2023-11-19T16:17:38;22.17;;;5.10;;
2177;SDS011;1095;50.992;6.798;2023-11-19T16:20:05;19.52;;;5.00;;
2177;SDS011;1095;50.992;6.798;2023-11-19T16:22:36;27.17;;;6.60;;
2177;SDS011;1095;50.992;6.798;2023-11-19T16:25:04;20.40;;;5.20;;
2177;SDS011;1095;50.992;6.798;2023-11-19T16:27:32;17.25;;;5.25;;
2177;SDS011;1095;50.992;6.798;2023-11-19T16:29:58;21.38;;;5.68;;
2177;SDS011;1095;50.992;6.798;2023-11-19T16:32:26;22.88;;;6.57;;
2177;SDS011;1095;50.992;6.798;2023-11-19T16:34:53;19.20;;;5.30;;